Latest Weather Observations for Roseworthy

IDS60901

Issued at 4:41 pm CDT Wednesday 22 February 2017 (issued every 10 minutes, with the page automatically refreshed every 10 minutes)

About weather observations | Map of Adelaide area stations | Latest observations for Adelaide area | Other Formats
Station Details ID: 023122 Name: ROSEWORTHY AWS Lat: -34.51 Lon: 138.68 Height: 65.0 m
Data from the previous 72 hours. | See also: Recent months at Roseworthy
Date/Time
CDT
Temp
°C
App
Temp
°C
Dew
Point
°C
Rel
Hum
%
Delta-T
°C
Wind Press
QNH
hPa
Press
MSL
hPa
Rain since
9am
mm
Dir  Spd
km/h
Gust
km/h
Spd
kts
Gust
kts
22/04:30pm 25.4 18.0 6.6 30 9.8 WSW 35 52 19 28 1011.3 1011.1 0.0
22/04:03pm 27.0 19.4 5.9 26 11.0 W 35 54 19 29 1011.0 1010.8 0.0
22/04:00pm 26.3 18.6 5.3 26 10.8 W 35 50 19 27 1010.9 1010.7 0.0
22/03:42pm 27.0 19.0 5.9 26 11.0 W 37 56 20 30 1010.9 1010.7 0.0
22/03:30pm 27.1 18.7 5.4 25 11.2 W 39 56 21 30 1010.8 1010.6 0.0
22/03:00pm 26.4 18.8 7.4 30 10.1 WSW 37 56 20 30 1010.7 1010.5 0.0
22/02:59pm 26.1 18.5 7.7 31 9.8 WSW 37 56 20 30 1010.6 1010.4 0.0
22/02:30pm 27.2 19.5 8.6 31 10.2 W 39 50 21 27 1010.5 1010.3 0.0
22/02:14pm 27.8 20.7 8.1 29 10.7 W 35 54 19 29 1010.1 1009.9 0.0
22/02:01pm 29.6 22.8 7.5 25 12.0 NW 33 52 18 28 1010.0 1009.8 0.0
22/02:00pm 29.4 21.9 6.1 23 12.3 NW 35 52 19 28 1010.0 1009.8 0.0
22/01:39pm 28.6 21.8 7.8 27 11.3 WNW 33 52 18 28 1010.2 1010.0 0.0
22/01:30pm 28.9 21.9 8.6 28 11.2 WNW 35 50 19 27 1010.2 1010.0 0.0
22/01:10pm 27.9 22.2 9.7 32 10.2 WNW 30 48 16 26 1010.3 1010.1 0.0
22/01:00pm 27.6 21.2 9.4 32 10.1 WNW 33 48 18 26 1010.3 1010.1 0.0
22/12:45pm 27.3 21.0 9.6 33 9.8 W 33 54 18 29 1010.4 1010.2 0.0
22/12:30pm 26.6 21.4 11.5 39 8.6 W 30 44 16 24 1010.5 1010.3 0.0
22/12:00pm 25.7 20.0 12.9 45 7.5 W 35 44 19 24 1010.7 1010.5 0.0
22/11:30am 25.7 19.7 14.5 50 6.7 WSW 39 57 21 31 1011.1 1010.9 0.0
22/11:17am 25.4 19.1 14.5 51 6.5 WSW 41 61 22 33 1011.2 1011.0 0.0
22/11:00am 26.2 17.2 8.7 33 9.5 W 46 59 25 32 1010.9 1010.7 0.0
22/10:56am 27.4 20.5 15.7 48 7.2 W 46 61 25 33 1010.7 1010.5 0.0
22/10:30am 29.3 18.4 3.3 19 13.1 WNW 50 74 27 40 1010.4 1010.2 0.0
22/10:12am 30.6 18.4 0.1 14 14.7 NW 54 80 29 43 1009.6 1009.4 0.0
22/10:11am 30.8 18.6 0.2 14 14.8 NW 54 70 29 38 1009.6 1009.4 0.0
22/10:00am 32.0 21.1 1.2 14 15.3 NNW 48 67 26 36 1008.9 1008.6 0.0
22/09:47am 30.9 20.8 0.3 14 14.8 NNW 43 61 23 33 1008.7 1008.4 0.0
22/09:30am 30.3 20.3 0.8 15 14.4 N 43 57 23 31 1008.9 1008.6 0.0
22/09:13am 29.7 21.5 0.3 15 14.1 N 33 56 18 30 1008.7 1008.4 0.0
22/09:00am 28.4 21.1 2.6 19 12.8 N 30 43 16 23 1008.7 1008.4 0.0
22/08:30am 26.8 19.0 2.0 20 12.1 N 32 43 17 23 1008.4 1008.1 0.0
22/08:00am 25.3 17.5 1.4 21 11.3 NNE 32 46 17 25 1008.1 1007.8 0.0
22/07:30am 24.1 16.7 1.7 23 10.6 NNE 30 41 16 22 1008.0 1007.7 0.0
22/07:00am 23.2 15.4 1.5 24 10.2 NNE 32 43 17 23 1007.7 1007.4 0.0
22/06:30am 22.3 14.5 1.9 26 9.6 NNE 32 41 17 22 1007.7 1007.4 0.0
22/06:00am 22.2 14.5 2.3 27 9.4 NNE 32 39 17 21 1007.9 1007.6 0.0
22/05:30am 20.2 14.8 2.5 31 8.3 NE 20 24 11 13 1008.3 1008.0 0.0
22/05:00am 21.4 15.2 2.2 28 9.0 NE 24 30 13 16 1008.3 1008.0 0.0
22/04:30am 20.5 15.1 2.3 30 8.5 NE 20 26 11 14 1008.4 1008.1 0.0
22/04:00am 19.5 14.2 1.9 31 8.1 NE 19 24 10 13 1008.6 1008.3 0.0
22/03:30am 19.4 13.9 0.4 28 8.5 NE 19 24 10 13 1008.9 1008.6 0.0
22/03:00am 22.4 16.4 0.9 24 9.9 NE 22 28 12 15 1009.3 1009.1 0.0
22/02:30am 22.5 16.4 0.4 23 10.1 NE 22 28 12 15 1009.6 1009.4 0.0
22/02:00am 22.0 16.0 1.1 25 9.6 NE 22 28 12 15 1010.2 1010.0 0.0
22/01:30am 22.7 16.5 2.2 26 9.7 NE 24 32 13 17 1010.5 1010.3 0.0
22/01:00am 19.9 14.6 3.2 33 7.9 NE 20 24 11 13 1010.8 1010.6 0.0
22/12:30am 19.8 14.5 3.1 33 7.9 NE 20 24 11 13 1011.2 1011.0 0.0
22/12:00am 20.6 14.6 3.3 32 8.2 NE 24 30 13 16 1011.4 1011.2 0.0
 
Date/Time
CDT
Temp
°C
App
Temp
°C
Dew
Point
°C
Rel
Hum
%
Delta-T
°C
Wind Press
QNH
hPa
Press
MSL
hPa
Rain since
9am
mm
Dir  Spd
km/h
Gust
km/h
Spd
kts
Gust
kts
21/11:30pm 21.4 15.4 3.1 30 8.7 NE 24 30 13 16 1011.8 1011.6 0.0
21/11:00pm 22.1 16.1 3.3 29 9.0 NE 24 32 13 17 1012.1 1011.9 0.0
21/10:30pm 22.7 16.3 3.3 28 9.4 NE 26 33 14 18 1012.4 1012.2 0.0
21/10:00pm 22.4 16.8 3.5 29 9.1 NE 22 28 12 15 1012.5 1012.3 0.0
21/09:30pm 22.5 17.3 3.6 29 9.2 ENE 20 26 11 14 1012.4 1012.2 0.0
21/09:00pm 24.2 18.2 3.5 26 10.1 NE 24 35 13 19 1012.1 1011.9 0.0
21/08:30pm 25.3 19.7 3.3 24 10.8 NE 22 30 12 16 1011.9 1011.7 0.0
21/08:00pm 26.2 21.0 3.5 23 11.3 NE 20 28 11 15 1011.6 1011.4 0.0
21/07:30pm 28.1 22.4 3.0 20 12.5 NE 22 32 12 17 1011.5 1011.3 0.0
21/07:00pm 29.2 24.4 4.6 21 12.7 E 19 32 10 17 1011.4 1011.2 0.0
21/06:30pm 29.6 25.9 6.3 23 12.4 SSW 15 24 8 13 1011.4 1011.2 0.0
21/06:00pm 31.3 26.1 3.4 17 14.3 NNW 20 30 11 16 1011.4 1011.2 0.0
21/05:30pm 31.5 27.6 3.5 17 14.4 NNE 13 30 7 16 1011.7 1011.5 0.0
21/05:00pm 31.0 27.4 3.1 17 14.2 N 11 24 6 13 1011.9 1011.7 0.0
21/04:30pm 31.2 26.3 4.1 18 14.0 NNW 19 26 10 14 1012.4 1012.2 0.0
21/04:00pm 31.5 28.1 5.8 20 13.7 NNW 13 33 7 18 1012.9 1012.7 0.0
21/03:30pm 30.3 26.0 3.4 18 13.7 N 15 26 8 14 1013.5 1013.2 0.0
21/03:00pm 30.5 26.7 5.7 21 13.1 NNE 15 24 8 13 1014.0 1013.7 0.0
21/02:30pm 30.0 26.6 6.0 22 12.7 NNE 13 26 7 14 1014.7 1014.4 0.0
21/02:00pm 29.5 24.6 4.9 21 12.8 NNW 20 30 11 16 1015.3 1015.0 0.0
21/01:30pm 28.2 25.0 5.1 23 11.9 NNE 11 20 6 11 1015.6 1015.3 0.0
21/01:00pm 27.7 24.2 5.3 24 11.6 N 13 22 7 12 1016.1 1015.8 0.0
21/12:30pm 27.1 24.0 5.4 25 11.2 NNW 11 20 6 11 1016.7 1016.4 0.0
21/12:00pm 27.1 23.3 6.0 26 11.0 NW 15 22 8 12 1017.2 1016.9 0.0
21/11:30am 26.3 22.9 5.8 27 10.6 N 13 20 7 11 1017.6 1017.3 0.0
21/11:00am 25.5 21.0 6.2 29 10.0 NNE 19 28 10 15 1018.0 1017.7 0.0
21/10:30am 23.8 18.7 6.1 32 9.0 NE 22 32 12 17 1018.2 1017.9 0.0
21/10:00am 21.6 15.3 5.9 36 7.9 NE 28 39 15 21 1018.4 1018.1 0.0
21/09:30am 19.6 13.0 6.0 41 6.7 NE 30 37 16 20 1018.5 1018.2 0.0
21/09:00am 18.0 11.0 5.9 45 5.9 NE 32 41 17 22 1018.5 1018.2 0.0
21/08:30am 16.4 10.2 6.2 51 5.0 NE 28 39 15 21 1018.4 1018.1 0.0
21/08:00am 13.8 8.9 6.7 62 3.4 ENE 22 28 12 15 1018.4 1018.1 0.0
21/07:30am 11.8 7.3 6.9 72 2.3 ENE 20 26 11 14 1017.8 1017.5 0.0
21/07:00am 10.5 7.6 6.3 75 2.0 E 11 15 6 8 1017.9 1017.6 0.0
21/06:30am 10.3 9.1 6.3 76 1.9 E 2 7 1 4 1017.6 1017.3 0.0
21/06:00am 10.3 6.6 6.5 77 1.8 E 15 20 8 11 1017.4 1017.1 0.0
21/05:30am 9.3 5.9 6.0 80 1.5 E 13 15 7 8 1017.6 1017.3 0.0
21/05:00am 10.0 7.5 6.5 79 1.6 E 9 11 5 6 1017.6 1017.3 0.0
21/04:30am 10.0 6.9 7.1 82 1.4 ENE 13 17 7 9 1017.6 1017.3 0.0
21/04:00am 9.5 6.5 6.2 80 1.5 E 11 15 6 8 1017.7 1017.4 0.0
21/03:30am 10.5 6.6 7.0 79 1.7 E 17 19 9 10 1017.6 1017.3 0.0
21/03:00am 10.6 7.1 7.3 80 1.6 E 15 17 8 9 1017.7 1017.4 0.0
21/02:30am 10.4 7.2 6.9 79 1.7 E 13 15 7 8 1017.8 1017.5 0.0
21/02:00am 11.0 8.1 6.7 75 2.0 E 11 13 6 7 1018.2 1017.9 0.0
21/01:30am 11.9 8.8 7.4 74 2.2 E 13 17 7 9 1018.3 1018.0 0.0
21/01:00am 11.0 8.0 7.5 79 1.7 E 13 17 7 9 1018.5 1018.2 0.0
21/12:30am 10.8 8.2 6.0 72 2.2 ESE 9 13 5 7 1018.8 1018.5 0.0
21/12:00am 12.4 9.1 6.5 67 2.8 E 13 19 7 10 1019.0 1018.7 0.0
 
Date/Time
CDT
Temp
°C
App
Temp
°C
Dew
Point
°C
Rel
Hum
%
Delta-T
°C
Wind Press
QNH
hPa
Press
MSL
hPa
Rain since
9am
mm
Dir  Spd
km/h
Gust
km/h
Spd
kts
Gust
kts
20/11:30pm 13.0 9.3 6.4 64 3.1 E 15 20 8 11 1019.0 1018.7 0.0
20/11:00pm 14.2 10.1 6.3 59 3.8 ESE 17 24 9 13 1019.0 1018.7 0.0
20/10:30pm 14.6 10.2 6.7 59 3.8 ESE 19 24 10 13 1018.8 1018.5 0.0
20/10:00pm 14.7 10.8 7.0 60 3.8 ESE 17 20 9 11 1018.7 1018.4 0.0
20/09:30pm 12.0 10.0 7.3 73 2.3 ESE 7 13 4 7 1018.4 1018.1 0.0
20/09:00pm 14.8 13.0 8.1 64 3.4 S 7 7 4 4 1018.2 1017.9 0.0
20/08:30pm 15.7 13.2 8.0 60 3.9 SSW 11 15 6 8 1018.0 1017.7 0.0
20/08:00pm 17.2 14.1 7.3 52 5.0 SW 13 19 7 10 1017.7 1017.4 0.0
20/07:30pm 18.8 14.9 6.9 46 6.0 SW 17 22 9 12 1017.3 1017.0 0.0
20/07:00pm 19.8 16.2 6.9 43 6.5 SW 15 20 8 11 1016.9 1016.6 0.0
20/06:30pm 20.5 16.8 6.5 40 7.1 SW 15 20 8 11 1016.7 1016.4 0.0
20/06:00pm 21.3 16.9 6.4 38 7.5 SW 19 26 10 14 1016.6 1016.3 0.0
20/05:30pm 21.7 18.0 6.4 37 7.8 WSW 15 24 8 13 1016.5 1016.2 0.0
20/05:00pm 21.5 17.1 6.6 38 7.6 SW 19 28 10 15 1016.5 1016.2 0.0
20/04:30pm 21.9 17.8 6.2 36 7.9 SSW 17 26 9 14 1016.5 1016.2 0.0
20/04:00pm 21.4 17.3 6.1 37 7.7 SSW 17 26 9 14 1016.4 1016.1 0.0
20/03:30pm 21.6 17.6 6.7 38 7.6 S 17 26 9 14 1016.5 1016.2 0.0
20/03:00pm 21.8 17.5 5.3 34 8.2 WSW 17 33 9 18 1016.6 1016.3 0.0
20/02:30pm 22.2 18.3 7.2 38 7.8 WSW 17 26 9 14 1017.0 1016.7 0.0
20/02:00pm 21.3 17.3 6.8 39 7.4 SSW 17 24 9 13 1017.2 1016.9 0.0
20/01:30pm 20.8 17.4 7.8 43 6.7 S 15 22 8 12 1017.3 1017.0 0.0
20/01:00pm 20.5 17.2 6.5 40 7.1 WSW 13 26 7 14 1017.6 1017.3 0.0
20/12:30pm 19.7 16.4 6.4 42 6.7 W 13 20 7 11 1017.9 1017.6 0.0
20/12:00pm 19.4 17.1 7.5 46 6.1 S 9 15 5 8 1018.1 1017.8 0.0
20/11:30am 19.4 17.6 7.8 47 6.0 ENE 7 11 4 6 1018.2 1017.9 0.0
20/11:00am 18.0 15.6 6.8 48 5.6 S 9 17 5 9 1018.6 1018.3 0.0
20/10:30am 17.6 16.0 8.2 54 4.8 S 6 11 3 6 1018.7 1018.4 0.0
20/10:00am 16.8 15.6 8.0 56 4.5 W 4 9 2 5 1018.8 1018.5 0.0
20/09:30am 16.5 15.2 9.2 62 3.8 ENE 6 9 3 5 1018.6 1018.3 0.0
20/09:00am 16.0 14.5 9.0 63 3.6 NNE 7 11 4 6 1018.5 1018.2 0.2
20/08:30am 14.7 13.4 11.3 80 1.8 N 9 11 5 6 1018.3 1018.0 0.2
20/08:00am 13.8 12.8 11.1 84 1.4 N 7 9 4 5 1018.2 1017.9 0.2
20/07:30am 12.3 12.5 10.7 90 0.8 CALM 0 0 0 0 1017.8 1017.5 0.2
20/07:00am 12.1 11.0 10.5 90 0.8 NNE 7 7 4 4 1017.4 1017.1 0.2
20/06:30am 11.5 9.4 9.8 89 0.9 NNE 11 11 6 6 1017.0 1016.7 0.2
20/06:00am 10.9 9.0 9.0 88 0.9 N 9 13 5 7 1016.9 1016.6 0.2
20/05:30am 12.1 10.4 10.0 87 1.1 E 9 11 5 6 1016.6 1016.3 0.2
20/05:00am 12.9 11.8 10.8 87 1.1 NNE 7 9 4 5 1016.3 1016.0 0.2
20/04:30am 12.7 11.2 10.6 87 1.1 N 9 9 5 5 1016.2 1015.9 0.2
20/04:00am 12.7 11.5 10.4 86 1.2 NW 7 9 4 5 1016.2 1015.9 0.2
20/03:30am 12.5 12.4 9.3 81 1.6 CALM 0 0 0 0 1016.2 1015.9 0.2
20/03:00am 13.2 13.2 9.8 80 1.7 CALM 0 0 0 0 1016.3 1016.0 0.2
20/02:30am 13.4 10.9 9.8 79 1.9 SW 13 20 7 11 1016.6 1016.3 0.2
20/02:00am 12.8 12.0 9.8 82 1.5 SSE 4 13 2 7 1016.7 1016.4 0.2
20/01:30am 12.1 11.5 9.1 82 1.5 WSW 2 9 1 5 1016.7 1016.4 0.2
20/01:00am 12.8 12.5 8.7 76 2.1 CALM 0 0 0 0 1016.7 1016.4 0.2
20/12:30am 13.1 11.5 8.8 75 2.2 S 7 9 4 5 1016.7 1016.4 0.2
20/12:00am 12.5 11.0 8.6 77 1.9 S 6 9 3 5 1016.8 1016.5 0.2
 
Date/Time
CDT
Temp
°C
App
Temp
°C
Dew
Point
°C
Rel
Hum
%
Delta-T
°C
Wind Press
QNH
hPa
Press
MSL
hPa
Rain since
9am
mm
Dir  Spd
km/h
Gust
km/h
Spd
kts
Gust
kts
19/11:30pm 12.5 10.7 8.0 74 2.2 S 7 9 4 5 1016.8 1016.5 0.2
19/11:00pm 13.4 11.4 8.5 72 2.5 S 9 13 5 7 1016.9 1016.6 0.2
19/10:30pm 14.3 11.5 8.7 69 2.8 S 13 17 7 9 1017.0 1016.7 0.2
19/10:00pm 15.0 11.5 8.9 67 3.1 SSW 17 22 9 12 1016.9 1016.6 0.2
19/09:30pm 15.6 11.7 9.5 67 3.2 SSW 20 28 11 15 1016.6 1016.3 0.2
19/09:00pm 16.3 13.4 9.5 64 3.5 SSW 15 24 8 13 1016.2 1015.9 0.2
19/08:30pm 16.0 13.6 10.1 68 3.1 SSW 13 20 7 11 1016.1 1015.8 0.2
19/08:00pm 16.3 13.2 10.4 68 3.1 SW 17 20 9 11 1015.9 1015.6 0.2
19/07:30pm 17.0 12.5 10.1 64 3.7 SSW 24 32 13 17 1015.8 1015.5 0.2
19/07:00pm 17.4 13.2 9.6 60 4.1 SW 22 32 12 17 1015.6 1015.3 0.2
19/06:30pm 17.9 12.5 9.5 58 4.4 SSW 28 33 15 18 1015.3 1015.0 0.2
19/06:00pm 18.2 13.1 9.3 56 4.7 SW 26 37 14 20 1015.4 1015.1 0.2
19/05:30pm 19.1 13.9 10.4 57 4.7 SSW 28 41 15 22 1015.3 1015.0 0.2
19/05:00pm 19.9 14.7 10.3 54 5.2 SW 28 39 15 21 1015.4 1015.1 0.2

Latest Capital City Observations: Canberra | Sydney | Melbourne | Brisbane | Adelaide | Perth | Hobart | Darwin

Other Formats:

Comma delimited format used in spreadsheet applications
http://www.bom.gov.au/fwo/IDS60901/IDS60901.95671.axf

JavaScript Object Notation format (JSON) in row-major order
http://www.bom.gov.au/fwo/IDS60901/IDS60901.95671.json